Time;durP1;ratioP1;P1;durP2;ratioP2;P2;SDS_P1;SDS_P2;PMS_P1;PMS_P2;Temp;Humidity;BMP_temperature;BMP_pressure;BME280_temperature;BME280_humidity;BME280_pressure;Samples;Min_cycle;Max_cycle;Signal;HPM_P1;HPM_P2
2022/07/09 00:01:07;;;;;;;15.10;9.33;;;;;;;;;;737804;188;919240;-58
2022/07/09 00:03:33;;;;;;;9.75;3.55;;;;;;;;;;739965;188;817707;-59
2022/07/09 00:05:59;;;;;;;8.13;4.00;;;;;;;;;;747715;187;917950;-58
2022/07/09 00:08:25;;;;;;;10.70;5.90;;;;;;;;;;739718;187;819612;-58
2022/07/09 00:10:51;;;;;;;7.05;4.57;;;;;;;;;;737291;187;916704;-58
2022/07/09 00:13:17;;;;;;;8.67;4.20;;;;;;;;;;743987;187;915674;-60
2022/07/09 00:15:43;;;;;;;9.70;3.60;;;;;;;;;;736649;187;919174;-57
2022/07/09 00:18:08;;;;;;;9.93;4.10;;;;;;;;;;737206;187;920248;-58
2022/07/09 00:20:34;;;;;;;5.67;3.60;;;;;;;;;;745489;188;817514;-60
2022/07/09 00:23:00;;;;;;;6.83;4.07;;;;;;;;;;735946;187;920268;-58
2022/07/09 00:25:26;;;;;;;14.50;4.30;;;;;;;;;;739210;187;924644;-59
2022/07/09 00:27:52;;;;;;;10.50;3.40;;;;;;;;;;736522;187;919319;-60
2022/07/09 00:30:18;;;;;;;4.80;3.30;;;;;;;;;;740673;188;919016;-61
2022/07/09 00:32:43;;;;;;;11.60;4.43;;;;;;;;;;736798;187;919283;-60
2022/07/09 00:35:09;;;;;;;20.67;4.60;;;;;;;;;;739512;187;916931;-61
2022/07/09 00:37:35;;;;;;;9.33;4.17;;;;;;;;;;738122;188;919204;-58
2022/07/09 00:40:01;;;;;;;8.67;4.30;;;;;;;;;;734653;191;921469;-58
2022/07/09 00:42:27;;;;;;;7.50;3.73;;;;;;;;;;741313;187;920899;-61
2022/07/09 00:44:53;;;;;;;5.40;4.27;;;;;;;;;;741959;187;817362;-58
2022/07/09 00:47:19;;;;;;;10.88;2.87;;;;;;;;;;740961;187;821788;-60
2022/07/09 00:49:44;;;;;;;9.90;4.10;;;;;;;;;;737708;187;924577;-60
2022/07/09 00:52:10;;;;;;;9.03;4.27;;;;;;;;;;735749;189;918528;-58
2022/07/09 00:54:36;;;;;;;15.77;4.67;;;;;;;;;;738637;187;824711;-58
2022/07/09 00:57:02;;;;;;;8.03;4.20;;;;;;;;;;736230;189;915489;-59
2022/07/09 00:59:28;;;;;;;13.70;3.90;;;;;;;;;;736199;188;914859;-58
2022/07/09 01:01:54;;;;;;;11.20;4.43;;;;;;;;;;742600;187;913506;-61
2022/07/09 01:04:20;;;;;;;8.57;5.07;;;;;;;;;;736273;188;918238;-61
2022/07/09 01:06:45;;;;;;;10.87;4.60;;;;;;;;;;738082;187;987168;-58
2022/07/09 01:09:13;;;;;;;11.57;5.27;;;;;;;;;;742681;187;922747;-61
2022/07/09 01:11:37;;;;;;;13.80;4.60;;;;;;;;;;738307;187;816512;-59
2022/07/09 01:14:03;;;;;;;8.93;5.00;;;;;;;;;;733282;190;918804;-59
2022/07/09 01:16:31;;;;;;;19.03;5.00;;;;;;;;;;739876;190;922640;-58
2022/07/09 01:18:57;;;;;;;7.50;3.87;;;;;;;;;;735858;190;816368;-59
2022/07/09 01:21:23;;;;;;;11.13;4.20;;;;;;;;;;735694;187;817341;-59
2022/07/09 01:23:49;;;;;;;6.47;4.00;;;;;;;;;;741952;187;919355;-62
2022/07/09 01:26:15;;;;;;;9.98;3.40;;;;;;;;;;744627;186;818494;-58
2022/07/09 01:28:40;;;;;;;6.43;3.43;;;;;;;;;;736655;186;894441;-61
2022/07/09 01:31:07;;;;;;;12.52;3.80;;;;;;;;;;741128;188;1022965;-62
2022/07/09 01:33:33;;;;;;;10.60;4.37;;;;;;;;;;745434;187;1019519;-59
2022/07/09 01:35:58;;;;;;;8.10;3.90;;;;;;;;;;749289;183;805234;-61
2022/07/09 01:38:24;;;;;;;12.93;5.57;;;;;;;;;;724986;191;816151;-59
2022/07/09 01:40:50;;;;;;;16.48;3.80;;;;;;;;;;737541;188;919075;-62
2022/07/09 01:43:16;;;;;;;23.77;5.80;;;;;;;;;;744745;188;918573;-59
2022/07/09 01:45:42;;;;;;;9.50;3.63;;;;;;;;;;732177;187;919198;-62
2022/07/09 01:48:08;;;;;;;23.63;4.40;;;;;;;;;;732363;187;917733;-59
2022/07/09 01:50:34;;;;;;;24.43;6.07;;;;;;;;;;731623;191;919493;-58
2022/07/09 01:53:00;;;;;;;10.33;4.17;;;;;;;;;;737933;188;918070;-63
2022/07/09 01:55:26;;;;;;;38.77;5.80;;;;;;;;;;737251;187;919535;-62
2022/07/09 01:57:51;;;;;;;10.20;3.80;;;;;;;;;;746861;185;912412;-62
2022/07/09 02:00:19;;;;;;;10.07;4.57;;;;;;;;;;726017;191;914195;-63
2022/07/09 02:02:43;;;;;;;10.93;4.13;;;;;;;;;;734489;188;913465;-63
2022/07/09 02:05:09;;;;;;;13.30;4.10;;;;;;;;;;742449;187;908493;-61
2022/07/09 02:07:35;;;;;;;13.40;4.10;;;;;;;;;;739297;187;918761;-59
2022/07/09 02:10:01;;;;;;;8.30;5.30;;;;;;;;;;735964;187;1228927;-62
2022/07/09 02:12:27;;;;;;;10.70;4.20;;;;;;;;;;738122;184;916020;-59
2022/07/09 02:14:52;;;;;;;7.40;3.47;;;;;;;;;;733610;190;919758;-62
2022/07/09 02:17:18;;;;;;;5.73;3.93;;;;;;;;;;736128;187;919250;-63
2022/07/09 02:19:44;;;;;;;6.35;4.85;;;;;;;;;;739370;186;919152;-63
2022/07/09 02:22:10;;;;;;;10.50;4.70;;;;;;;;;;742732;187;895295;-60
2022/07/09 02:24:36;;;;;;;15.60;5.10;;;;;;;;;;740558;185;820690;-63
2022/07/09 02:27:02;;;;;;;11.40;5.77;;;;;;;;;;741260;187;918066;-59
2022/07/09 02:29:28;;;;;;;10.93;4.60;;;;;;;;;;745008;187;823008;-62
2022/07/09 02:31:55;;;;;;;7.63;5.07;;;;;;;;;;739285;187;919198;-59
2022/07/09 02:34:19;;;;;;;25.03;5.53;;;;;;;;;;739700;187;816306;-59
2022/07/09 02:36:45;;;;;;;9.90;5.80;;;;;;;;;;740529;187;916771;-63
2022/07/09 02:39:11;;;;;;;7.60;5.50;;;;;;;;;;737502;187;1017816;-59
2022/07/09 02:41:37;;;;;;;12.73;5.93;;;;;;;;;;735126;188;916965;-62
2022/07/09 02:44:03;;;;;;;11.40;6.27;;;;;;;;;;738343;187;861782;-63
2022/07/09 02:46:28;;;;;;;13.25;6.50;;;;;;;;;;743358;187;790900;-63
2022/07/09 02:48:54;;;;;;;8.73;6.50;;;;;;;;;;739116;187;897312;-60
2022/07/09 02:51:20;;;;;;;13.90;7.53;;;;;;;;;;737547;187;910671;-60
2022/07/09 02:53:46;;;;;;;13.57;7.10;;;;;;;;;;742787;187;921775;-59
2022/07/09 02:56:12;;;;;;;10.07;7.40;;;;;;;;;;739945;187;914900;-62
2022/07/09 02:58:38;;;;;;;12.03;8.50;;;;;;;;;;741430;187;918947;-63
2022/07/09 03:01:05;;;;;;;11.55;7.78;;;;;;;;;;730261;191;917820;-64
2022/07/09 03:03:31;;;;;;;13.10;7.40;;;;;;;;;;740075;187;918699;-62
2022/07/09 03:05:57;;;;;;;20.90;9.10;;;;;;;;;;740726;187;916443;-59
2022/07/09 03:08:22;;;;;;;15.77;8.00;;;;;;;;;;738476;187;919304;-60
2022/07/09 03:10:49;;;;;;;34.63;11.37;;;;;;;;;;742043;187;919084;-62
2022/07/09 03:13:14;;;;;;;13.30;9.20;;;;;;;;;;740897;189;815322;-64
2022/07/09 03:15:40;;;;;;;11.40;8.10;;;;;;;;;;738433;187;919272;-64
2022/07/09 03:18:09;;;;;;;14.03;9.13;;;;;;;;;;741716;187;859402;-60
2022/07/09 03:20:36;;;;;;;19.93;9.47;;;;;;;;;;734087;187;919692;-60
2022/07/09 03:23:02;;;;;;;11.37;8.90;;;;;;;;;;737997;187;910365;-58
2022/07/09 03:25:28;;;;;;;15.73;9.90;;;;;;;;;;735476;187;941176;-59
2022/07/09 03:27:54;;;;;;;17.27;9.77;;;;;;;;;;741227;187;915485;-62
2022/07/09 03:30:20;;;;;;;21.60;9.03;;;;;;;;;;737781;187;917998;-63
2022/07/09 03:32:45;;;;;;;25.93;11.20;;;;;;;;;;737578;187;816465;-59
2022/07/09 03:35:11;;;;;;;16.10;10.97;;;;;;;;;;742077;187;919126;-62
2022/07/09 03:37:37;;;;;;;19.27;9.20;;;;;;;;;;737051;188;919243;-64
2022/07/09 03:40:04;;;;;;;20.15;10.88;;;;;;;;;;736412;187;918686;-60
2022/07/09 03:42:29;;;;;;;16.67;9.83;;;;;;;;;;744874;187;925611;-63
2022/07/09 03:44:55;;;;;;;19.33;10.17;;;;;;;;;;739005;186;919240;-63
2022/07/09 03:47:21;;;;;;;15.02;9.52;;;;;;;;;;740258;186;919017;-63
2022/07/09 03:49:47;;;;;;;15.47;9.53;;;;;;;;;;736757;187;923970;-64
2022/07/09 03:52:12;;;;;;;14.17;10.17;;;;;;;;;;744062;187;819754;-60
2022/07/09 03:54:38;;;;;;;18.33;10.13;;;;;;;;;;734420;187;918749;-60
2022/07/09 03:57:05;;;;;;;22.53;10.17;;;;;;;;;;736532;187;935210;-63
2022/07/09 03:59:30;;;;;;;25.33;11.97;;;;;;;;;;741490;187;919409;-60
2022/07/09 04:01:56;;;;;;;33.35;13.95;;;;;;;;;;736178;187;1021643;-60
2022/07/09 04:04:22;;;;;;;27.27;12.60;;;;;;;;;;737396;187;919078;-59
2022/07/09 04:06:48;;;;;;;20.47;11.40;;;;;;;;;;741505;187;816874;-64
2022/07/09 04:09:14;;;;;;;22.10;10.88;;;;;;;;;;736924;189;919126;-63
2022/07/09 04:11:40;;;;;;;24.63;11.47;;;;;;;;;;736228;185;887341;-59
2022/07/09 04:14:05;;;;;;;23.20;12.57;;;;;;;;;;732855;187;912726;-60
2022/07/09 04:16:31;;;;;;;35.20;13.00;;;;;;;;;;738867;189;913222;-60
2022/07/09 04:18:57;;;;;;;23.57;12.33;;;;;;;;;;736822;187;915825;-62
2022/07/09 04:21:23;;;;;;;28.67;12.43;;;;;;;;;;738968;187;917421;-60
2022/07/09 04:23:49;;;;;;;28.33;13.40;;;;;;;;;;742941;187;911642;-63
2022/07/09 04:26:15;;;;;;;27.57;12.67;;;;;;;;;;737268;187;919234;-59
2022/07/09 04:28:40;;;;;;;28.33;13.40;;;;;;;;;;737598;188;920107;-59
2022/07/09 04:31:06;;;;;;;17.30;11.93;;;;;;;;;;742858;187;919042;-59
2022/07/09 04:33:32;;;;;;;24.70;12.93;;;;;;;;;;740309;187;916109;-57
2022/07/09 04:35:58;;;;;;;28.50;13.13;;;;;;;;;;742917;183;918704;-63
2022/07/09 04:38:24;;;;;;;20.40;12.73;;;;;;;;;;734780;189;891630;-59
2022/07/09 04:40:50;;;;;;;26.90;12.70;;;;;;;;;;735055;189;918414;-63
2022/07/09 04:43:16;;;;;;;22.67;13.63;;;;;;;;;;736314;187;921327;-60
2022/07/09 04:45:41;;;;;;;21.60;12.87;;;;;;;;;;738487;189;935659;-61
2022/07/09 04:48:07;;;;;;;25.63;13.00;;;;;;;;;;738157;190;818458;-59
2022/07/09 04:50:33;;;;;;;20.60;13.73;;;;;;;;;;739510;187;918845;-72
2022/07/09 04:52:59;;;;;;;26.40;13.80;;;;;;;;;;737040;187;887412;-62
2022/07/09 04:55:25;;;;;;;24.53;14.03;;;;;;;;;;742316;187;817280;-67
2022/07/09 04:57:51;;;;;;;21.92;11.70;;;;;;;;;;737674;187;908039;-59
2022/07/09 05:00:17;;;;;;;25.03;11.17;;;;;;;;;;738586;187;919322;-59
2022/07/09 05:02:42;;;;;;;21.63;14.23;;;;;;;;;;744130;187;893477;-63
2022/07/09 05:05:08;;;;;;;19.43;10.70;;;;;;;;;;739145;187;917835;-59
2022/07/09 05:07:34;;;;;;;22.80;10.97;;;;;;;;;;739665;187;918582;-62
2022/07/09 05:10:01;;;;;;;14.80;9.60;;;;;;;;;;737883;187;948991;-59
2022/07/09 05:12:28;;;;;;;17.93;9.37;;;;;;;;;;744572;187;915640;-63
2022/07/09 05:14:55;;;;;;;15.27;10.40;;;;;;;;;;736272;187;820637;-60
2022/07/09 05:17:19;;;;;;;17.33;10.00;;;;;;;;;;739571;187;919728;-62
2022/07/09 05:19:45;;;;;;;17.87;9.43;;;;;;;;;;742488;187;819285;-58
2022/07/09 05:22:11;;;;;;;13.23;8.27;;;;;;;;;;738777;187;909989;-62
2022/07/09 05:24:37;;;;;;;13.70;9.10;;;;;;;;;;738315;187;954965;-59
2022/07/09 05:27:03;;;;;;;11.75;8.88;;;;;;;;;;743917;189;903173;-61
2022/07/09 05:29:29;;;;;;;9.33;8.13;;;;;;;;;;737592;187;912659;-58
2022/07/09 05:31:57;;;;;;;15.50;7.53;;;;;;;;;;736421;187;927305;-59
2022/07/09 05:34:20;;;;;;;12.13;7.70;;;;;;;;;;738296;187;926197;-58
2022/07/09 05:36:46;;;;;;;12.97;7.23;;;;;;;;;;747482;187;628305;-57
2022/07/09 05:39:12;;;;;;;23.13;6.93;;;;;;;;;;743294;185;917823;-61
2022/07/09 05:41:38;;;;;;;9.63;6.15;;;;;;;;;;739900;187;917639;-58
2022/07/09 05:44:04;;;;;;;14.33;6.13;;;;;;;;;;738817;188;1015179;-60
2022/07/09 05:46:30;;;;;;;11.83;7.17;;;;;;;;;;736027;187;930338;-58
2022/07/09 05:48:55;;;;;;;10.00;5.80;;;;;;;;;;738440;187;865102;-58
2022/07/09 05:51:22;;;;;;;18.43;6.70;;;;;;;;;;741601;187;919668;-58
2022/07/09 05:53:47;;;;;;;9.38;6.15;;;;;;;;;;735767;188;918155;-58
2022/07/09 05:56:13;;;;;;;11.87;6.60;;;;;;;;;;737092;187;918544;-61
2022/07/09 05:58:40;;;;;;;14.93;6.22;;;;;;;;;;742009;187;900948;-58
2022/07/09 06:01:06;;;;;;;8.17;4.60;;;;;;;;;;741522;185;913886;-61
2022/07/09 06:03:32;;;;;;;9.20;5.60;;;;;;;;;;740952;187;822003;-60
2022/07/09 06:05:58;;;;;;;7.40;4.53;;;;;;;;;;737784;187;1024126;-61
2022/07/09 06:08:25;;;;;;;9.53;5.17;;;;;;;;;;747288;187;716733;-59
2022/07/09 06:10:50;;;;;;;8.47;5.00;;;;;;;;;;747286;183;619525;-61
2022/07/09 06:13:16;;;;;;;9.80;5.23;;;;;;;;;;743288;183;618687;-58
2022/07/09 06:15:42;;;;;;;9.07;5.10;;;;;;;;;;741493;187;620262;-61
2022/07/09 06:18:08;;;;;;;6.70;4.17;;;;;;;;;;739687;187;629124;-61
2022/07/09 06:20:34;;;;;;;9.13;5.07;;;;;;;;;;742517;187;789879;-61
2022/07/09 06:23:00;;;;;;;7.23;4.77;;;;;;;;;;742435;187;613820;-58
2022/07/09 06:25:26;;;;;;;6.13;4.07;;;;;;;;;;743864;187;630153;-61
2022/07/09 06:27:51;;;;;;;9.90;4.67;;;;;;;;;;743720;185;640500;-58
2022/07/09 06:30:17;;;;;;;8.60;3.80;;;;;;;;;;738620;187;630904;-60
2022/07/09 06:32:43;;;;;;;10.20;4.70;;;;;;;;;;737459;191;625786;-61
2022/07/09 06:35:09;;;;;;;7.80;4.03;;;;;;;;;;733695;187;623053;-59
2022/07/09 06:37:35;;;;;;;8.30;4.37;;;;;;;;;;736387;191;625214;-58
2022/07/09 06:40:01;;;;;;;9.90;4.03;;;;;;;;;;742777;187;618464;-60
2022/07/09 06:42:27;;;;;;;11.97;4.03;;;;;;;;;;742177;187;632987;-58
2022/07/09 06:44:52;;;;;;;6.90;4.23;;;;;;;;;;740173;187;624784;-58
2022/07/09 06:47:18;;;;;;;6.50;4.30;;;;;;;;;;752254;184;630273;-60
2022/07/09 06:49:44;;;;;;;4.40;3.57;;;;;;;;;;736748;187;620452;-58
2022/07/09 06:52:10;;;;;;;7.50;4.30;;;;;;;;;;734686;187;816767;-58
2022/07/09 06:54:36;;;;;;;5.63;3.50;;;;;;;;;;741699;187;620435;-58
2022/07/09 06:57:02;;;;;;;10.40;4.10;;;;;;;;;;745935;187;616858;-60
2022/07/09 06:59:27;;;;;;;8.00;3.40;;;;;;;;;;731413;191;620382;-61
2022/07/09 07:01:53;;;;;;;6.20;3.77;;;;;;;;;;739822;188;633210;-61
2022/07/09 07:04:20;;;;;;;8.13;4.27;;;;;;;;;;745459;187;626556;-61
2022/07/09 07:06:46;;;;;;;7.83;4.00;;;;;;;;;;728656;190;619437;-58
2022/07/09 07:09:12;;;;;;;8.43;3.87;;;;;;;;;;739954;189;646138;-60
2022/07/09 07:11:37;;;;;;;5.93;3.30;;;;;;;;;;746316;186;901069;-60
2022/07/09 07:14:03;;;;;;;10.90;3.37;;;;;;;;;;742188;187;636726;-60
2022/07/09 07:16:28;;;;;;;7.50;4.15;;;;;;;;;;743985;187;645477;-57
2022/07/09 07:18:54;;;;;;;5.77;3.60;;;;;;;;;;743924;187;623698;-60
2022/07/09 07:21:20;;;;;;;4.83;3.60;;;;;;;;;;748468;187;626703;-57
2022/07/09 07:23:46;;;;;;;7.30;4.33;;;;;;;;;;740510;187;618855;-60
2022/07/09 07:26:12;;;;;;;6.00;3.23;;;;;;;;;;740962;187;706252;-57
2022/07/09 07:28:38;;;;;;;3.80;3.13;;;;;;;;;;747385;187;663465;-60
2022/07/09 07:31:04;;;;;;;7.93;3.67;;;;;;;;;;745979;183;666170;-57
2022/07/09 07:33:30;;;;;;;4.70;3.67;;;;;;;;;;733662;191;629707;-60
2022/07/09 07:35:57;;;;;;;5.83;3.70;;;;;;;;;;746147;187;621499;-59
2022/07/09 07:38:27;;;;;;;7.10;3.70;;;;;;;;;;742219;187;620793;-61
2022/07/09 07:40:48;;;;;;;12.13;4.40;;;;;;;;;;743477;187;621866;-58
2022/07/09 07:43:14;;;;;;;11.83;4.23;;;;;;;;;;740752;187;632205;-60
2022/07/09 07:45:40;;;;;;;7.43;3.87;;;;;;;;;;742813;187;630173;-58
2022/07/09 07:48:06;;;;;;;8.43;4.00;;;;;;;;;;740470;187;622853;-61
2022/07/09 07:50:32;;;;;;;10.97;4.67;;;;;;;;;;741034;187;783341;-58
2022/07/09 07:52:58;;;;;;;9.93;3.83;;;;;;;;;;742355;189;713952;-56
2022/07/09 07:55:23;;;;;;;7.10;4.37;;;;;;;;;;741930;189;628953;-61
2022/07/09 07:57:49;;;;;;;11.73;3.57;;;;;;;;;;743059;187;628282;-61
2022/07/09 08:00:15;;;;;;;6.37;3.40;;;;;;;;;;745022;189;627780;-61
2022/07/09 08:02:41;;;;;;;6.60;3.10;;;;;;;;;;738808;187;626519;-61
2022/07/09 08:05:07;;;;;;;5.60;3.27;;;;;;;;;;739193;187;677435;-60
2022/07/09 08:07:33;;;;;;;7.82;3.42;;;;;;;;;;742043;187;613760;-58
2022/07/09 08:09:59;;;;;;;8.23;3.80;;;;;;;;;;743797;187;620876;-62
2022/07/09 08:12:25;;;;;;;4.97;3.43;;;;;;;;;;740316;187;782847;-63
2022/07/09 08:14:51;;;;;;;5.60;4.00;;;;;;;;;;740224;187;616995;-58
2022/07/09 08:17:16;;;;;;;5.57;3.80;;;;;;;;;;745166;187;619000;-60
2022/07/09 08:19:42;;;;;;;10.23;4.67;;;;;;;;;;741519;187;636158;-61
2022/07/09 08:22:08;;;;;;;7.27;3.80;;;;;;;;;;742999;186;615203;-63
2022/07/09 08:24:34;;;;;;;10.17;4.77;;;;;;;;;;747641;187;618629;-58
2022/07/09 08:27:00;;;;;;;8.63;3.87;;;;;;;;;;741195;187;618749;-61
2022/07/09 08:29:26;;;;;;;7.13;4.67;;;;;;;;;;734894;187;622618;-61
2022/07/09 08:31:52;;;;;;;5.00;3.40;;;;;;;;;;741362;190;630456;-58
2022/07/09 08:34:17;;;;;;;7.87;3.97;;;;;;;;;;743289;187;639153;-58
2022/07/09 08:36:44;;;;;;;6.60;3.77;;;;;;;;;;739327;187;763921;-61
2022/07/09 08:39:09;;;;;;;5.77;3.70;;;;;;;;;;740183;188;616396;-60
2022/07/09 08:41:35;;;;;;;6.97;3.80;;;;;;;;;;745543;187;760714;-63
2022/07/09 08:44:01;;;;;;;9.70;3.70;;;;;;;;;;742698;187;633638;-66
2022/07/09 08:46:27;;;;;;;5.57;3.27;;;;;;;;;;741635;187;628606;-59
2022/07/09 08:48:53;;;;;;;8.73;3.67;;;;;;;;;;747414;187;641851;-65
2022/07/09 08:51:19;;;;;;;7.77;4.23;;;;;;;;;;744402;184;626093;-60
2022/07/09 08:53:44;;;;;;;5.23;2.90;;;;;;;;;;737163;191;631407;-59
2022/07/09 08:56:10;;;;;;;7.40;3.03;;;;;;;;;;745632;188;629873;-60
2022/07/09 08:58:36;;;;;;;5.67;3.63;;;;;;;;;;740147;190;625182;-60
2022/07/09 09:01:04;;;;;;;6.77;3.40;;;;;;;;;;742193;187;636762;-60
2022/07/09 09:03:28;;;;;;;5.27;3.40;;;;;;;;;;731500;188;632433;-60
2022/07/09 09:06:00;;;;;;;7.33;3.13;;;;;;;;;;746794;187;629402;-65
2022/07/09 09:08:26;;;;;;;8.73;3.23;;;;;;;;;;738834;187;618654;-60
2022/07/09 09:10:51;;;;;;;7.70;3.30;;;;;;;;;;741120;187;632891;-63
2022/07/09 09:13:17;;;;;;;6.77;2.83;;;;;;;;;;745575;187;627825;-59
2022/07/09 09:15:43;;;;;;;4.43;2.90;;;;;;;;;;743510;187;633088;-60
2022/07/09 09:18:09;;;;;;;5.37;3.07;;;;;;;;;;740757;187;819413;-67
2022/07/09 09:20:35;;;;;;;8.60;3.07;;;;;;;;;;740435;187;628895;-66
2022/07/09 09:23:04;;;;;;;4.57;2.67;;;;;;;;;;746579;183;619142;-59
2022/07/09 09:25:28;;;;;;;4.37;2.80;;;;;;;;;;744969;187;627112;-60
2022/07/09 09:27:55;;;;;;;11.23;2.50;;;;;;;;;;742440;187;628086;-65
2022/07/09 09:30:22;;;;;;;3.33;2.57;;;;;;;;;;744036;187;628966;-66
2022/07/09 09:32:55;;;;;;;3.53;2.07;;;;;;;;;;741882;185;620322;-59
2022/07/09 09:35:21;;;;;;;7.63;2.30;;;;;;;;;;741472;187;616260;-59
2022/07/09 09:37:47;;;;;;;4.53;2.30;;;;;;;;;;743898;184;631080;-59
2022/07/09 09:40:13;;;;;;;9.90;2.17;;;;;;;;;;735311;190;628630;-65
2022/07/09 09:42:39;;;;;;;3.33;1.80;;;;;;;;;;742292;187;629811;-66
2022/07/09 09:45:05;;;;;;;4.13;2.13;;;;;;;;;;742603;187;630464;-67
2022/07/09 09:47:31;;;;;;;3.30;2.00;;;;;;;;;;746774;187;775313;-59
2022/07/09 09:49:57;;;;;;;4.90;2.30;;;;;;;;;;742623;187;649533;-66
2022/07/09 09:52:23;;;;;;;4.33;2.13;;;;;;;;;;743779;187;637104;-66
2022/07/09 09:54:49;;;;;;;4.43;2.37;;;;;;;;;;738210;187;817791;-64
2022/07/09 09:57:16;;;;;;;8.00;2.77;;;;;;;;;;746030;187;634636;-66
2022/07/09 09:59:40;;;;;;;6.03;2.30;;;;;;;;;;742831;187;703507;-67
2022/07/09 10:02:09;;;;;;;5.33;1.97;;;;;;;;;;740317;187;641826;-60
2022/07/09 10:04:33;;;;;;;3.13;1.87;;;;;;;;;;744181;187;684305;-60
2022/07/09 10:06:59;;;;;;;4.47;2.10;;;;;;;;;;738180;187;814573;-61
2022/07/09 10:09:25;;;;;;;5.77;2.80;;;;;;;;;;741828;183;901839;-68
2022/07/09 10:11:51;;;;;;;3.30;2.00;;;;;;;;;;738366;189;919501;-67
2022/07/09 10:14:17;;;;;;;2.80;1.70;;;;;;;;;;736288;191;692193;-60
2022/07/09 10:16:43;;;;;;;5.73;2.43;;;;;;;;;;736492;188;817214;-68
2022/07/09 10:19:09;;;;;;;4.40;1.53;;;;;;;;;;740452;188;624819;-67
2022/07/09 10:21:35;;;;;;;4.73;2.30;;;;;;;;;;742049;187;624985;-66
2022/07/09 10:24:01;;;;;;;6.90;2.10;;;;;;;;;;740557;187;952116;-59
2022/07/09 10:26:42;;;;;;;8.70;2.33;;;;;;;;;;745120;187;619494;-61
2022/07/09 10:29:22;;;;;;;3.47;1.90;;;;;;;;;;733107;189;637348;-60
2022/07/09 10:31:48;;;;;;;5.10;2.00;;;;;;;;;;731674;189;640334;-60
2022/07/09 10:34:26;;;;;;;5.40;2.17;;;;;;;;;;742923;188;633234;-68
2022/07/09 10:36:57;;;;;;;4.00;1.73;;;;;;;;;;741443;187;877621;-69
2022/07/09 10:39:23;;;;;;;2.93;1.50;;;;;;;;;;736672;187;816940;-61
2022/07/09 10:41:49;;;;;;;3.33;1.93;;;;;;;;;;744041;184;615170;-70
2022/07/09 10:44:15;;;;;;;6.10;2.00;;;;;;;;;;742232;187;638477;-60
2022/07/09 10:46:41;;;;;;;3.53;2.10;;;;;;;;;;739039;187;626968;-69
2022/07/09 10:49:07;;;;;;;3.87;1.80;;;;;;;;;;746567;187;628908;-67
2022/07/09 10:51:33;;;;;;;6.23;1.80;;;;;;;;;;744674;187;627731;-60
2022/07/09 10:53:58;;;;;;;4.97;2.03;;;;;;;;;;740236;187;634990;-60
2022/07/09 10:56:25;;;;;;;6.63;2.90;;;;;;;;;;742091;187;625986;-61
2022/07/09 10:58:50;;;;;;;2.83;2.10;;;;;;;;;;742069;187;629755;-67
2022/07/09 11:01:21;;;;;;;4.40;2.67;;;;;;;;;;747075;187;710442;-62
2022/07/09 11:03:46;;;;;;;4.90;2.03;;;;;;;;;;742316;187;621300;-67
2022/07/09 11:06:12;;;;;;;5.47;1.80;;;;;;;;;;740343;187;639026;-67
2022/07/09 11:08:38;;;;;;;4.30;2.00;;;;;;;;;;745253;187;619888;-60
2022/07/09 11:11:03;;;;;;;3.60;1.60;;;;;;;;;;736707;187;618852;-60
2022/07/09 11:13:29;;;;;;;5.27;2.00;;;;;;;;;;741543;187;624281;-69
2022/07/09 11:15:58;;;;;;;3.93;2.10;;;;;;;;;;743223;187;627141;-60
2022/07/09 11:18:24;;;;;;;4.50;1.90;;;;;;;;;;744998;187;622234;-70
2022/07/09 11:20:50;;;;;;;2.93;1.80;;;;;;;;;;744893;183;642564;-61
2022/07/09 11:23:15;;;;;;;6.93;1.93;;;;;;;;;;745930;187;626838;-68
2022/07/09 11:25:41;;;;;;;3.67;1.80;;;;;;;;;;745095;187;619517;-71
2022/07/09 11:28:07;;;;;;;4.20;2.17;;;;;;;;;;741764;187;630464;-68
2022/07/09 11:30:33;;;;;;;4.80;2.03;;;;;;;;;;741695;187;621247;-69
2022/07/09 11:32:59;;;;;;;6.90;2.13;;;;;;;;;;745829;187;623687;-68
2022/07/09 11:35:25;;;;;;;2.60;1.40;;;;;;;;;;740417;187;625164;-70
2022/07/09 11:37:52;;;;;;;2.90;2.10;;;;;;;;;;741056;187;632365;-69
2022/07/09 11:40:17;;;;;;;4.10;2.07;;;;;;;;;;741059;187;646051;-61
2022/07/09 11:42:43;;;;;;;4.10;1.70;;;;;;;;;;745602;187;616750;-69
2022/07/09 11:45:09;;;;;;;4.53;2.07;;;;;;;;;;741408;187;628725;-69
2022/07/09 11:47:35;;;;;;;4.93;2.43;;;;;;;;;;739418;185;642819;-68
2022/07/09 11:50:06;;;;;;;7.80;1.83;;;;;;;;;;736589;191;643791;-61
2022/07/09 11:52:31;;;;;;;3.30;2.00;;;;;;;;;;737608;187;634992;-61
2022/07/09 11:54:58;;;;;;;5.13;1.60;;;;;;;;;;739009;187;624497;-60
2022/07/09 11:57:24;;;;;;;3.20;1.80;;;;;;;;;;744737;187;675527;-69
2022/07/09 11:59:50;;;;;;;3.00;2.10;;;;;;;;;;747942;187;658695;-61
2022/07/09 12:02:22;;;;;;;5.00;1.60;;;;;;;;;;746505;186;689904;-64
2022/07/09 12:04:47;;;;;;;3.57;1.97;;;;;;;;;;736326;188;817897;-63
2022/07/09 12:07:13;;;;;;;6.03;2.13;;;;;;;;;;744744;188;920790;-65
2022/07/09 12:09:39;;;;;;;5.70;2.17;;;;;;;;;;732403;188;918262;-60
2022/07/09 12:12:05;;;;;;;3.67;1.97;;;;;;;;;;737392;187;879570;-69
2022/07/09 12:14:31;;;;;;;2.77;1.80;;;;;;;;;;747624;183;627801;-62
2022/07/09 12:16:57;;;;;;;4.00;1.97;;;;;;;;;;741483;187;615593;-69
2022/07/09 12:19:23;;;;;;;3.63;1.90;;;;;;;;;;740614;187;630277;-61
2022/07/09 12:21:49;;;;;;;3.50;1.77;;;;;;;;;;744607;187;624609;-61
2022/07/09 12:24:14;;;;;;;6.43;2.40;;;;;;;;;;744908;187;632802;-69
2022/07/09 12:26:40;;;;;;;3.93;2.30;;;;;;;;;;742533;187;623630;-61
2022/07/09 12:29:06;;;;;;;2.73;1.70;;;;;;;;;;742126;187;625413;-70
2022/07/09 12:31:32;;;;;;;2.70;1.40;;;;;;;;;;744323;187;616706;-61
2022/07/09 12:33:58;;;;;;;2.50;1.73;;;;;;;;;;742665;187;619026;-61
2022/07/09 12:36:24;;;;;;;6.50;2.20;;;;;;;;;;747883;186;624617;-62
2022/07/09 12:38:50;;;;;;;3.33;1.40;;;;;;;;;;738771;191;633697;-69
2022/07/09 12:41:16;;;;;;;2.70;1.50;;;;;;;;;;748718;184;627755;-61
2022/07/09 12:43:42;;;;;;;3.20;2.07;;;;;;;;;;743890;187;625380;-70
2022/07/09 12:46:07;;;;;;;5.80;2.00;;;;;;;;;;743167;187;710411;-71
2022/07/09 12:48:33;;;;;;;3.30;1.70;;;;;;;;;;740619;187;628951;-62
2022/07/09 12:51:00;;;;;;;7.70;1.67;;;;;;;;;;739204;189;627423;-64
2022/07/09 12:53:25;;;;;;;4.90;2.00;;;;;;;;;;749822;187;628864;-69
2022/07/09 12:55:51;;;;;;;5.20;2.10;;;;;;;;;;746618;187;628407;-68
2022/07/09 12:58:17;;;;;;;2.70;1.67;;;;;;;;;;741119;187;636126;-70
2022/07/09 13:00:43;;;;;;;7.20;1.90;;;;;;;;;;741290;189;617669;-70
2022/07/09 13:03:08;;;;;;;3.00;1.50;;;;;;;;;;742828;187;638162;-69
2022/07/09 13:05:34;;;;;;;6.60;2.00;;;;;;;;;;743316;187;627449;-69
2022/07/09 13:08:00;;;;;;;3.20;1.87;;;;;;;;;;742754;187;633719;-70
2022/07/09 13:10:26;;;;;;;4.73;1.70;;;;;;;;;;743593;188;626220;-62
2022/07/09 13:12:52;;;;;;;2.80;1.80;;;;;;;;;;743179;187;633816;-69
2022/07/09 13:15:20;;;;;;;3.10;1.90;;;;;;;;;;744932;187;622758;-70
2022/07/09 13:17:44;;;;;;;2.40;1.60;;;;;;;;;;744232;187;635812;-62
2022/07/09 13:20:10;;;;;;;3.00;1.40;;;;;;;;;;745748;187;634945;-61
2022/07/09 13:22:36;;;;;;;2.60;1.70;;;;;;;;;;742120;187;670326;-68
2022/07/09 13:25:02;;;;;;;3.30;1.90;;;;;;;;;;741027;187;756789;-62
2022/07/09 13:27:28;;;;;;;6.97;2.03;;;;;;;;;;745901;187;639915;-72
2022/07/09 13:29:55;;;;;;;3.90;1.80;;;;;;;;;;741283;187;631032;-62
2022/07/09 13:32:19;;;;;;;3.10;1.80;;;;;;;;;;742289;187;676648;-65
2022/07/09 13:34:45;;;;;;;4.73;2.00;;;;;;;;;;740423;187;639336;-69
2022/07/09 13:37:12;;;;;;;2.30;1.50;;;;;;;;;;745607;187;645398;-63
2022/07/09 13:39:37;;;;;;;11.60;2.00;;;;;;;;;;742028;187;619688;-69
2022/07/09 13:42:03;;;;;;;9.23;1.60;;;;;;;;;;740563;187;624264;-64
2022/07/09 13:44:29;;;;;;;3.37;1.80;;;;;;;;;;745179;187;633517;-69
2022/07/09 13:46:55;;;;;;;22.33;14.83;;;;;;;;;;741721;187;628429;-64
2022/07/09 13:49:21;;;;;;;63.23;51.70;;;;;;;;;;739245;188;630961;-63
2022/07/09 13:51:46;;;;;;;3.63;2.33;;;;;;;;;;740881;183;627715;-69
2022/07/09 13:54:13;;;;;;;3.87;1.93;;;;;;;;;;734109;187;633965;-69
2022/07/09 13:56:38;;;;;;;6.63;2.10;;;;;;;;;;739139;189;653613;-62
2022/07/09 13:59:04;;;;;;;140.53;82.43;;;;;;;;;;745443;187;630695;-60
2022/07/09 14:01:31;;;;;;;45.93;23.67;;;;;;;;;;741731;187;820576;-63
2022/07/09 14:03:56;;;;;;;12.60;2.80;;;;;;;;;;743647;187;651661;-61
2022/07/09 14:06:24;;;;;;;4.70;2.27;;;;;;;;;;741091;187;614610;-61
2022/07/09 14:08:49;;;;;;;2.90;1.67;;;;;;;;;;748647;187;608820;-66
2022/07/09 14:11:15;;;;;;;6.97;2.10;;;;;;;;;;744085;187;643551;-65
2022/07/09 14:13:42;;;;;;;3.73;1.80;;;;;;;;;;741201;189;625891;-61
2022/07/09 14:16:06;;;;;;;3.57;1.70;;;;;;;;;;741225;187;919115;-60